Pagrindinis puslapis
METAR-TAF:

METAR-TAF

Oro uostai :

Stavropolis, Rusija

platuma: 45-20N, ilguma: 042-00E, Aukštis: 453 m

Dabartinis oras

Ataskaita buvo paskelbta 40 minutes, ne 05:30 UTC
Vėjas 6 kt iš Pietryčių
Temperatūra 3°C
Drėgmė 81%
Slėgis 1019 hPa
Matomumas 10 km arba daugiau
nėra debesų žemiau 1500 m ir nėra kamuolinių lietaus debesų

METAR: URMT 100530Z 13003MPS CAVOK 03/00 Q1019 R07/190060 NOSIG RMK QFE724

Laikas: 10:10 (06:10 UTC)

Prognozė

Ataskaita buvo paskelbta 1 valandą ir 10 minutes, ne 05:00 UTC
Prognozė galioja nuo 10 metu 06 UTC su 10 metu 15 UTC
Vėjas 6 kt iš Pietryčių su gūsio iki 16 kt
Matomumas 10 km arba daugiau
Išsisklaidę debesys ne aukštis 2000 ft
Laikinai
nuo 10 metu 06 UTC su 10 metu 08 UTC
Vėjas 2 kt nuo kintamojo kryptimis
Matomumas: 3100 m
Išsisklaidę debesys ne aukštis 1100 ft
Su prošvaistėmis ne aukštis 2000 ft
rūkana

TAF: URMT 100500Z 1006/1015 14003G08MPS 9999 SCT020 TEMPO 1006/1008 VRB01MPS 3100 BR SCT011 BKN020

Orai ataskaitas ir orų prognozės (METAR, TAF).

turimą stotys yra geltonos ir raudonos taškus žemėlapyje.

Perkelti pele per norėdami pamatyti stoties vardą.

Tada spustelėkite, norėdami matyti oro stebėjimo ir prognozės.

Norėdami pakeisti žemėlapį: spustelėkite ant žalios mygtukų su juodo kryžiaus žemyn,; žalią mygtuką su brūkšneliu, jei norite nutolinti; arba žalių rodyklių gretimoms žemėlapius.


METAR-TAF: